createdAt,value
2022-09-05T03:23:23.433Z,11.58
2022-09-05T03:57:16.236Z,11.24
2022-09-05T06:49:31.344Z,14.16
2022-09-05T07:39:31.614Z,15.64
2022-09-05T07:48:34.295Z,15.88
2022-09-05T08:56:04.667Z,17.89
2022-09-05T08:59:27.560Z,18.01
2022-09-05T09:02:48.021Z,18.14
2022-09-05T10:52:50.518Z,21.61
2022-09-05T11:39:56.262Z,22.64
2022-09-05T11:52:32.820Z,23.18
2022-09-05T12:45:16.983Z,24.26
2022-09-05T12:48:14.504Z,24.27
2022-09-05T12:51:05.689Z,24.46
2022-09-05T13:03:05.381Z,24.63
2022-09-05T13:05:29.607Z,24.46
2022-09-05T13:14:58.328Z,25.00
2022-09-05T13:17:15.820Z,25.14
2022-09-05T13:20:04.439Z,25.08
2022-09-05T13:22:53.527Z,25.03
2022-09-05T13:25:45.292Z,24.94
2022-09-05T13:38:29.167Z,25.52
2022-09-05T14:15:52.691Z,25.84
2022-09-05T14:25:11.144Z,25.95
2022-09-05T15:02:55.257Z,27.46
2022-09-05T15:03:02.247Z,27.50
2022-09-05T15:15:26.082Z,27.31
2022-09-05T15:18:14.315Z,27.33
2022-09-05T15:21:30.650Z,27.44
2022-09-05T15:24:31.751Z,27.45
2022-09-05T15:27:16.829Z,27.54
2022-09-05T15:30:06.689Z,27.49
2022-09-05T15:33:11.683Z,27.09
2022-09-05T15:35:59.294Z,26.75
2022-09-05T15:48:18.273Z,26.73
2022-09-05T15:59:49.194Z,26.43
2022-09-05T16:02:43.665Z,26.57
2022-09-05T16:10:49.756Z,26.08
2022-09-05T16:23:46.415Z,25.75
2022-09-05T16:26:44.406Z,25.50
2022-09-05T16:41:58.303Z,25.36
2022-09-05T16:47:52.263Z,25.43
2022-09-05T16:50:50.427Z,25.41
2022-09-05T16:57:09.739Z,25.12
2022-09-05T16:59:56.822Z,24.93
2022-09-05T17:02:54.090Z,24.83
2022-09-05T17:05:48.335Z,24.72
2022-09-05T17:08:36.199Z,24.62
2022-09-05T17:20:20.058Z,24.31
2022-09-05T17:30:37.740Z,24.10
2022-09-05T17:32:21.112Z,23.95
2022-09-05T18:14:42.679Z,22.07
2022-09-05T20:43:36.999Z,17.48
2022-09-05T20:53:12.430Z,17.40
2022-09-05T20:54:20.332Z,17.30
2022-09-05T20:54:21.741Z,17.36
2022-09-05T20:56:08.081Z,17.28
2022-09-05T20:58:58.440Z,17.22
2022-09-05T21:01:57.543Z,17.17
2022-09-05T21:05:19.842Z,17.16
2022-09-05T21:08:37.290Z,17.13
2022-09-05T21:11:32.482Z,17.10
2022-09-05T21:14:20.740Z,17.12
2022-09-05T21:17:15.761Z,17.14
2022-09-05T21:20:08.873Z,17.15
2022-09-05T21:22:54.471Z,17.12
2022-09-05T21:25:54.488Z,17.11
2022-09-05T21:28:44.310Z,17.12
2022-09-05T21:31:31.923Z,17.10
2022-09-05T21:34:24.651Z,17.10
2022-09-05T21:37:12.334Z,17.05
2022-09-05T21:40:01.206Z,17.07
2022-09-05T21:47:10.546Z,17.07
2022-09-05T21:47:43.442Z,17.09
2022-09-05T21:49:00.752Z,17.09
2022-09-05T21:51:53.161Z,17.09
2022-09-05T21:59:13.404Z,17.10
2022-09-05T21:59:24.727Z,17.11
2022-09-05T22:00:53.616Z,17.13
2022-09-05T22:03:39.431Z,17.13
2022-09-05T22:06:29.225Z,17.11
2022-09-05T22:09:19.603Z,17.11
2022-09-05T22:12:30.100Z,17.10
2022-09-05T22:15:28.070Z,17.09
2022-09-05T22:18:17.613Z,17.08
2022-09-05T22:21:31.758Z,17.09
2022-09-05T22:24:13.096Z,17.08
2022-09-05T22:27:11.084Z,17.10
2022-09-05T22:29:58.537Z,17.13
2022-09-05T22:32:44.077Z,17.13
2022-09-05T22:35:29.521Z,17.14
2022-09-05T22:38:20.233Z,17.13
2022-09-05T22:41:06.216Z,17.14
2022-09-05T22:43:52.125Z,17.14
2022-09-05T22:46:37.752Z,17.14
2022-09-05T22:49:23.166Z,17.14
2022-09-05T22:52:09.821Z,17.14
2022-09-05T22:54:55.198Z,17.14
2022-09-05T22:57:41.466Z,17.14
2022-09-05T23:00:27.186Z,17.12
2022-09-05T23:03:12.467Z,17.11
2022-09-05T23:06:05.763Z,17.11
2022-09-05T23:08:51.330Z,17.12
2022-09-05T23:11:37.034Z,17.11
2022-09-05T23:14:22.661Z,17.08
2022-09-05T23:17:08.063Z,17.08
2022-09-05T23:19:53.569Z,17.03
2022-09-05T23:22:40.049Z,17.01
2022-09-05T23:25:25.465Z,16.98
2022-09-05T23:28:10.764Z,16.94
2022-09-05T23:31:00.205Z,16.94
2022-09-05T23:33:45.551Z,16.92
2022-09-05T23:36:31.144Z,16.87
2022-09-05T23:39:16.758Z,16.79
2022-09-05T23:42:02.072Z,16.73
2022-09-05T23:44:47.591Z,16.69
2022-09-05T23:47:37.792Z,16.66
2022-09-05T23:50:23.392Z,16.64
2022-09-05T23:53:08.947Z,16.59
2022-09-05T23:55:59.574Z,16.52
2022-09-05T23:58:45.716Z,16.44
